Time;durP1;ratioP1;P1;durP2;ratioP2;P2;SDS_P1;SDS_P2;PMS_P1;PMS_P2;Temp;Humidity;BMP_temperature;BMP_pressure;BME280_temperature;BME280_humidity;BME280_pressure;Samples;Min_cycle;Max_cycle;Signal;HPM_P1;HPM_P2
2021/05/03 00:01:47;;;;;;;13.43;5.20;;;;;;;19.88;61.41;99419.66;5047014;28;20025;-23
2021/05/03 00:04:13;;;;;;;15.77;4.75;;;;;;;19.83;60.98;99407.00;5046998;28;20060;-23
2021/05/03 00:06:38;;;;;;;13.27;4.93;;;;;;;19.92;60.93;99417.97;5046955;28;20029;-23
2021/05/03 00:09:05;;;;;;;13.45;4.63;;;;;;;19.92;60.40;99415.25;5046938;28;20500;-23
2021/05/03 00:11:30;;;;;;;13.80;5.13;;;;;;;19.97;60.37;99438.72;5046718;28;20037;-23
2021/05/03 00:13:56;;;;;;;17.52;5.22;;;;;;;20.16;59.70;99435.94;5045545;28;20039;-23
2021/05/03 00:16:21;;;;;;;13.65;4.88;;;;;;;19.81;60.26;99430.84;5046659;28;20048;-21
2021/05/03 00:18:47;;;;;;;14.77;4.57;;;;;;;19.48;62.07;99448.91;5047143;28;20029;-23
2021/05/03 00:21:12;;;;;;;14.52;4.63;;;;;;;19.78;61.48;99463.09;5046942;28;20481;-22
2021/05/03 00:23:37;;;;;;;13.65;4.60;;;;;;;19.87;60.85;99464.03;5047130;28;20094;-23
2021/05/03 00:26:03;;;;;;;21.40;5.60;;;;;;;19.83;60.69;99452.19;5047421;28;20033;-23
2021/05/03 00:28:29;;;;;;;14.27;4.90;;;;;;;19.83;60.82;99439.47;5046240;28;20457;-23
2021/05/03 00:30:54;;;;;;;20.92;5.50;;;;;;;20.00;60.65;99463.28;5046945;28;20509;-23
2021/05/03 00:33:20;;;;;;;17.73;5.15;;;;;;;19.97;59.88;99450.34;5046811;28;20029;-23
2021/05/03 00:35:45;;;;;;;11.80;3.80;;;;;;;19.91;59.29;99434.47;5049617;28;20025;-23
2021/05/03 00:38:11;;;;;;;13.88;4.60;;;;;;;20.20;58.51;99442.38;5050350;28;20025;-19
2021/05/03 00:40:36;;;;;;;14.50;4.50;;;;;;;20.30;57.37;99435.97;5050630;28;20036;-22
2021/05/03 00:43:02;;;;;;;16.40;5.00;;;;;;;20.32;57.10;99439.19;5050493;28;20040;-22
2021/05/03 00:45:30;;;;;;;17.95;5.22;;;;;;;20.17;57.00;99421.31;5050515;28;20055;-22
2021/05/03 00:47:56;;;;;;;12.82;4.20;;;;;;;20.26;56.19;99441.16;5050494;28;20032;-22
2021/05/03 00:50:24;;;;;;;14.20;3.53;;;;;;;20.20;54.25;99431.53;5048759;28;20053;-22
2021/05/03 00:52:49;;;;;;;16.83;4.75;;;;;;;20.32;53.72;99436.47;5049147;28;20060;-21
2021/05/03 00:55:15;;;;;;;14.70;4.38;;;;;;;20.29;54.09;99440.59;5050439;28;20116;-21
2021/05/03 00:57:41;;;;;;;14.60;3.90;;;;;;;20.27;54.49;99427.34;5050233;28;20104;-22
2021/05/03 01:00:08;;;;;;;13.85;3.65;;;;;;;20.04;54.96;99428.28;5050410;28;20040;-21
2021/05/03 01:02:33;;;;;;;23.20;4.30;;;;;;;19.93;55.69;99443.09;5050187;28;20094;-21
2021/05/03 01:04:59;;;;;;;16.90;4.22;;;;;;;20.10;55.42;99453.38;5050393;28;20029;-22
2021/05/03 01:07:24;;;;;;;9.77;3.30;;;;;;;19.70;56.70;99456.44;5050199;28;20039;-21
2021/05/03 01:09:50;;;;;;;11.93;3.50;;;;;;;19.59;56.11;99450.34;5050146;28;20025;-21
2021/05/03 01:12:15;;;;;;;11.77;3.75;;;;;;;19.43;55.66;99451.66;5050298;28;20033;-22
2021/05/03 01:14:41;;;;;;;14.23;4.22;;;;;;;19.73;55.16;99461.25;5050108;28;20408;-22
2021/05/03 01:17:06;;;;;;;12.80;3.15;;;;;;;19.37;55.50;99463.66;5048759;28;20037;-22
2021/05/03 01:19:32;;;;;;;15.20;4.20;;;;;;;19.46;55.75;99468.13;5050183;28;20029;-22
2021/05/03 01:21:57;;;;;;;15.65;3.88;;;;;;;19.55;55.86;99452.03;5050062;28;20037;-22
2021/05/03 01:24:23;;;;;;;14.45;4.25;;;;;;;19.49;56.17;99453.19;5048308;28;20091;-22
2021/05/03 01:26:48;;;;;;;14.35;4.20;;;;;;;19.40;56.37;99446.84;5049852;28;20049;-22
2021/05/03 01:29:14;;;;;;;17.13;3.90;;;;;;;19.40;56.02;99430.63;5049555;28;20048;-22
2021/05/03 01:31:40;;;;;;;13.15;4.78;;;;;;;19.46;55.82;99440.28;5048466;28;20049;-22
2021/05/03 01:34:06;;;;;;;10.95;3.67;;;;;;;19.45;55.96;99457.59;5049878;28;20492;-22
2021/05/03 01:36:38;;;;;;;16.00;4.00;;;;;;;19.43;55.82;99462.47;5049422;28;20091;-21
2021/05/03 01:39:07;;;;;;;17.33;4.53;;;;;;;19.49;55.91;99455.91;5048503;28;20036;-22
2021/05/03 01:41:33;;;;;;;13.00;4.32;;;;;;;19.38;56.21;99470.69;5049649;28;20481;-22
2021/05/03 01:43:59;;;;;;;14.98;4.03;;;;;;;18.78;57.06;99436.84;5049520;28;20037;-22
2021/05/03 01:46:25;;;;;;;14.50;3.60;;;;;;;19.24;55.77;99441.66;5048550;28;20061;-22
2021/05/03 01:48:51;;;;;;;12.70;3.90;;;;;;;19.26;55.51;99444.88;5031435;28;20528;-22
2021/05/03 01:51:16;;;;;;;13.75;3.90;;;;;;;19.05;56.52;99457.06;5048156;28;20021;-22
2021/05/03 01:53:42;;;;;;;11.80;3.80;;;;;;;18.57;57.00;99454.34;5031560;28;20470;-22
2021/05/03 01:56:07;;;;;;;13.85;3.55;;;;;;;18.26;57.99;99465.44;5048052;28;20029;-22
2021/05/03 01:58:33;;;;;;;12.43;3.60;;;;;;;18.33;56.92;99473.22;5031438;28;20033;-21
2021/05/03 02:01:00;;;;;;;13.32;3.47;;;;;;;18.19;56.50;99457.69;5049211;28;20821;-22
2021/05/03 02:03:26;;;;;;;15.57;3.92;;;;;;;18.39;55.76;99461.31;5049377;28;20796;-22
2021/05/03 02:05:52;;;;;;;17.05;3.53;;;;;;;18.29;54.28;99462.19;5049147;28;20029;-22
2021/05/03 02:08:18;;;;;;;14.57;3.22;;;;;;;18.34;54.48;99458.63;5048440;28;20470;-21
2021/05/03 02:10:44;;;;;;;13.60;3.40;;;;;;;18.57;54.29;99465.16;5049419;28;20029;-22
2021/05/03 02:13:09;;;;;;;12.23;2.80;;;;;;;18.67;53.29;99438.03;5049173;28;20029;-22
2021/05/03 02:15:35;;;;;;;11.30;2.75;;;;;;;18.78;53.01;99453.03;5048951;28;20121;-22
2021/05/03 02:18:00;;;;;;;14.07;3.50;;;;;;;18.79;52.63;99449.25;5048842;28;20029;-22
2021/05/03 02:20:26;;;;;;;8.85;2.78;;;;;;;18.33;54.32;99460.53;5048775;28;20083;-22
2021/05/03 02:22:52;;;;;;;15.55;3.30;;;;;;;18.17;55.01;99465.28;5048700;28;20039;-22
2021/05/03 02:25:17;;;;;;;10.80;3.30;;;;;;;18.46;53.87;99478.75;5048790;28;20174;-22
2021/05/03 02:27:43;;;;;;;12.05;3.35;;;;;;;18.59;52.99;99485.41;5048810;28;20032;-22
2021/05/03 02:30:09;;;;;;;14.25;3.00;;;;;;;18.55;52.64;99472.72;5047308;28;20044;-23
2021/05/03 02:32:36;;;;;;;17.42;3.38;;;;;;;18.44;52.61;99486.34;5047152;28;20036;-22
2021/05/03 02:35:22;;;;;;;9.93;2.60;;;;;;;18.57;52.20;99489.44;5048403;28;20048;-22
2021/05/03 02:37:50;;;;;;;11.27;2.67;;;;;;;18.41;51.74;99496.91;5047337;28;20037;-22
2021/05/03 02:40:19;;;;;;;10.70;3.33;;;;;;;18.12;52.25;99483.41;5048348;28;20056;-22
2021/05/03 02:42:55;;;;;;;10.93;2.83;;;;;;;18.13;52.04;99475.03;5048548;28;20079;-22
2021/05/03 02:45:21;;;;;;;12.60;2.28;;;;;;;18.31;51.26;99492.41;5048382;28;20044;-22
2021/05/03 02:47:47;;;;;;;9.73;2.50;;;;;;;18.21;50.23;99497.91;5048146;28;20112;-22
2021/05/03 02:50:13;;;;;;;11.73;2.83;;;;;;;18.37;50.02;99502.06;5047906;28;20765;-22
2021/05/03 02:52:39;;;;;;;12.65;2.72;;;;;;;18.61;48.81;99512.09;5048239;28;20420;-22
2021/05/03 02:55:05;;;;;;;14.05;2.58;;;;;;;18.52;48.65;99503.00;5048050;28;20489;-22
2021/05/03 02:57:31;;;;;;;12.73;2.33;;;;;;;17.99;48.58;99507.25;5047743;28;20033;-22
2021/05/03 02:59:56;;;;;;;10.80;2.75;;;;;;;17.67;50.30;99522.00;5047456;28;20040;-22
2021/05/03 03:02:22;;;;;;;14.50;2.70;;;;;;;17.62;49.12;99530.09;5047687;28;20044;-22
2021/05/03 03:04:47;;;;;;;9.50;2.33;;;;;;;17.57;47.13;99526.63;5048016;28;20041;-22
2021/05/03 03:07:12;;;;;;;16.77;2.60;;;;;;;17.70;46.17;99536.00;5048132;28;20037;-22
2021/05/03 03:09:38;;;;;;;8.43;2.15;;;;;;;17.70;43.69;99530.63;5048033;28;20032;-22
2021/05/03 03:12:05;;;;;;;10.15;2.17;;;;;;;18.00;43.63;99546.63;5047959;28;20024;-21
2021/05/03 03:14:30;;;;;;;8.10;2.15;;;;;;;18.16;42.51;99549.19;5047566;28;20070;-20
2021/05/03 03:16:56;;;;;;;13.52;2.20;;;;;;;18.18;40.53;99542.44;5048084;28;20029;-22
2021/05/03 03:19:21;;;;;;;14.00;2.72;;;;;;;18.25;39.55;99555.63;5047633;28;20040;-21
2021/05/03 03:21:47;;;;;;;9.35;2.10;;;;;;;18.44;39.48;99558.44;5046625;28;20033;-21
2021/05/03 03:24:12;;;;;;;10.30;1.90;;;;;;;18.57;38.34;99567.75;5047557;28;20090;-22
2021/05/03 03:26:37;;;;;;;10.13;1.65;;;;;;;18.68;36.47;99577.38;5047548;28;20026;-21
2021/05/03 03:29:04;;;;;;;8.63;1.83;;;;;;;18.83;36.91;99566.44;5046190;28;20029;-22
2021/05/03 03:31:29;;;;;;;9.73;1.73;;;;;;;18.78;36.25;99566.50;5047527;28;20032;-22
2021/05/03 03:33:55;;;;;;;10.13;1.80;;;;;;;18.90;36.07;99568.00;5047450;28;20456;-22
2021/05/03 03:36:20;;;;;;;9.50;1.70;;;;;;;19.06;35.03;99588.38;5047837;28;20548;-23
2021/05/03 03:38:46;;;;;;;10.45;1.50;;;;;;;19.06;35.34;99593.78;5047476;28;20029;-22
2021/05/03 03:41:11;;;;;;;24.05;4.40;;;;;;;19.19;34.19;99597.72;5047365;28;20033;-22
2021/05/03 03:43:37;;;;;;;9.38;1.67;;;;;;;19.23;34.32;99614.97;5047320;28;20091;-22
2021/05/03 03:46:02;;;;;;;12.82;1.98;;;;;;;19.18;34.06;99618.50;5047018;28;20025;-22
2021/05/03 03:48:27;;;;;;;6.47;1.70;;;;;;;19.15;33.40;99600.19;5046678;28;20048;-21
2021/05/03 03:50:53;;;;;;;12.73;2.00;;;;;;;19.12;33.31;99608.06;5047340;28;20533;-22
2021/05/03 03:53:18;;;;;;;8.10;1.65;;;;;;;19.25;33.45;99613.59;5047371;28;20029;-22
2021/05/03 03:55:44;;;;;;;9.90;1.73;;;;;;;19.25;33.53;99621.69;5047473;28;20067;-21
2021/05/03 03:58:09;;;;;;;13.38;1.70;;;;;;;19.30;33.88;99620.81;5047207;28;20036;-22
2021/05/03 04:00:35;;;;;;;12.40;3.13;;;;;;;19.32;33.92;99642.19;5047226;28;20421;-22
2021/05/03 04:03:02;;;;;;;7.25;1.75;;;;;;;19.15;33.62;99662.34;5046992;28;20056;-22
2021/05/03 04:05:40;;;;;;;9.48;1.92;;;;;;;19.27;34.74;99653.84;5029740;28;20033;-22
2021/05/03 04:08:15;;;;;;;;;;;;;;;19.26;33.07;99647.63;5047542;28;20037;-22
2021/05/03 04:21:22;;;;;;;8.88;2.25;;;;;;;19.44;33.10;99634.47;5046975;28;20409;-22
2021/05/03 04:23:58;;;;;;;8.95;2.05;;;;;;;19.47;32.62;99636.56;5046919;28;20036;-21
2021/05/03 04:26:24;;;;;;;11.93;2.55;;;;;;;19.46;33.47;99637.69;5046678;28;20474;-22
2021/05/03 04:28:50;;;;;;;8.35;2.38;;;;;;;19.41;33.26;99630.44;5046728;28;20036;-22
2021/05/03 04:31:16;;;;;;;8.57;2.05;;;;;;;19.49;32.79;99634.38;5045683;28;20509;-23
2021/05/03 04:33:42;;;;;;;12.00;2.42;;;;;;;19.52;33.41;99606.78;5046860;28;20036;-21
2021/05/03 04:36:08;;;;;;;13.60;2.95;;;;;;;19.42;32.61;99617.72;5045375;28;20029;-22
2021/05/03 04:38:33;;;;;;;11.45;2.33;;;;;;;19.48;32.89;99635.50;5046405;28;20115;-22
2021/05/03 04:40:59;;;;;;;6.70;1.63;;;;;;;19.45;33.49;99655.00;5046821;28;20044;-22
2021/05/03 04:43:24;;;;;;;9.23;2.30;;;;;;;19.48;33.49;99647.13;5046934;28;20048;-21
2021/05/03 04:45:50;;;;;;;6.28;1.83;;;;;;;19.46;33.54;99645.78;5046944;28;20029;-21
2021/05/03 04:48:16;;;;;;;9.15;2.17;;;;;;;19.58;33.39;99648.09;5046347;28;20036;-22
2021/05/03 04:50:42;;;;;;;20.55;1.90;;;;;;;19.70;31.69;99648.50;5046502;28;20061;-21
2021/05/03 04:53:07;;;;;;;7.30;1.88;;;;;;;19.78;32.28;99645.19;5046650;28;20128;-22
2021/05/03 04:55:33;;;;;;;7.80;2.03;;;;;;;19.82;32.14;99650.81;5046866;28;20751;-22
2021/05/03 04:57:58;;;;;;;15.10;2.40;;;;;;;19.82;32.47;99669.75;5045373;28;20021;-22
2021/05/03 05:00:24;;;;;;;14.30;1.73;;;;;;;19.96;32.37;99681.47;5046379;28;20037;-21
2021/05/03 05:02:49;;;;;;;10.63;1.90;;;;;;;19.96;31.84;99675.25;5045414;28;20029;-23
2021/05/03 05:05:15;;;;;;;8.55;1.80;;;;;;;20.09;32.15;99690.78;5046305;28;20033;-23
2021/05/03 05:07:41;;;;;;;10.85;2.10;;;;;;;20.16;33.04;99693.91;5046213;28;20068;-22
2021/05/03 05:10:07;;;;;;;9.00;2.22;;;;;;;20.25;32.54;99696.78;5046308;28;20475;-23
2021/05/03 05:12:32;;;;;;;8.65;1.90;;;;;;;20.52;32.59;99711.59;5046122;28;20087;-23
2021/05/03 05:14:58;;;;;;;9.18;1.70;;;;;;;20.54;32.29;99712.09;5046599;28;20409;-22
2021/05/03 05:17:23;;;;;;;15.88;2.13;;;;;;;20.34;31.84;99708.56;5046472;28;20029;-21
2021/05/03 05:19:49;;;;;;;8.25;2.15;;;;;;;20.25;32.46;99716.53;5046349;28;20041;-22
2021/05/03 05:22:15;;;;;;;8.65;2.17;;;;;;;20.33;32.83;99728.63;5048011;28;20068;-21
2021/05/03 05:24:40;;;;;;;14.07;1.98;;;;;;;20.45;32.49;99729.00;5050228;28;20029;-21
2021/05/03 05:27:06;;;;;;;8.75;2.58;;;;;;;20.41;32.79;99741.53;5048730;28;20507;-20
2021/05/03 05:29:31;;;;;;;6.05;1.70;;;;;;;20.42;32.34;99726.06;5048740;28;20037;-21
2021/05/03 05:31:57;;;;;;;9.85;2.03;;;;;;;20.38;32.42;99755.63;5049964;28;20139;-23
2021/05/03 05:34:22;;;;;;;8.50;1.92;;;;;;;20.42;32.44;99745.81;5049421;28;20040;-22
2021/05/03 05:36:48;;;;;;;11.20;2.35;;;;;;;20.47;32.94;99740.34;5049564;28;20075;-22
2021/05/03 05:39:13;;;;;;;7.47;1.60;;;;;;;20.57;33.55;99754.84;5049521;28;20029;-21
2021/05/03 05:41:40;;;;;;;9.82;2.47;;;;;;;20.61;33.38;99766.72;5049625;28;20033;-22
2021/05/03 05:44:09;;;;;;;14.40;3.28;;;;;;;20.50;33.49;99766.03;5049824;28;20036;-22
2021/05/03 05:46:34;;;;;;;5.53;1.65;;;;;;;20.48;33.65;99768.25;5048016;28;20038;-23
2021/05/03 05:49:00;;;;;;;8.57;2.53;;;;;;;20.56;33.74;99769.50;5049036;28;20057;-21
2021/05/03 05:51:26;;;;;;;7.05;1.95;;;;;;;20.81;33.31;99768.34;5049654;28;20029;-22
2021/05/03 05:53:51;;;;;;;7.03;1.70;;;;;;;20.71;31.95;99766.56;5049771;28;20039;-22
2021/05/03 05:56:17;;;;;;;9.90;1.88;;;;;;;20.95;33.15;99787.38;5048109;28;20079;-22
2021/05/03 05:58:42;;;;;;;8.70;2.75;;;;;;;20.95;33.96;99787.38;5049351;28;20033;-22
2021/05/03 06:01:08;;;;;;;6.93;1.90;;;;;;;21.06;33.79;99788.81;5049092;28;20039;-22
2021/05/03 06:03:33;;;;;;;12.10;2.13;;;;;;;21.29;34.49;99770.84;5049242;28;20489;-21
2021/05/03 06:05:59;;;;;;;5.95;2.00;;;;;;;21.24;32.22;99766.28;5049216;28;20025;-21
2021/05/03 06:08:25;;;;;;;8.90;1.70;;;;;;;21.09;33.94;99761.13;5048994;28;20032;-21
2021/05/03 06:10:50;;;;;;;8.88;2.60;;;;;;;21.20;32.35;99778.03;5049365;28;20025;-21
2021/05/03 06:13:16;;;;;;;7.05;1.77;;;;;;;21.33;32.75;99784.59;5049111;28;20044;-22
2021/05/03 06:15:41;;;;;;;12.95;1.90;;;;;;;21.58;33.00;99783.38;5048822;28;20025;-22
2021/05/03 06:18:07;;;;;;;8.05;1.52;;;;;;;21.51;32.79;99789.19;5048872;28;20459;-22
2021/05/03 06:20:34;;;;;;;6.72;2.13;;;;;;;21.69;32.17;99784.00;5047276;28;20444;-22
2021/05/03 06:23:03;;;;;;;9.13;2.13;;;;;;;21.73;33.37;99787.72;5048729;28;20111;-22
2021/05/03 06:25:28;;;;;;;6.00;1.60;;;;;;;21.25;31.92;99775.25;5048908;28;20028;-22
2021/05/03 06:27:54;;;;;;;18.48;2.58;;;;;;;21.45;33.20;99806.66;5048767;28;20028;-22
2021/05/03 06:30:22;;;;;;;11.85;2.80;;;;;;;21.57;32.70;99806.19;5048337;28;20074;-22
2021/05/03 06:32:47;;;;;;;12.88;2.53;;;;;;;21.58;33.86;99814.03;5048182;28;20044;-21
2021/05/03 06:35:13;;;;;;;4.72;1.70;;;;;;;21.71;33.93;99812.44;5048565;28;20032;-21
2021/05/03 06:37:38;;;;;;;10.65;1.52;;;;;;;21.40;33.32;99812.13;5048601;28;20390;-21
2021/05/03 06:40:04;;;;;;;10.75;1.90;;;;;;;21.49;33.49;99813.09;5047188;28;20032;-22
2021/05/03 06:42:29;;;;;;;10.25;1.92;;;;;;;21.52;34.33;99823.34;5047030;28;21044;-21
2021/05/03 06:44:55;;;;;;;11.27;1.85;;;;;;;21.84;34.64;99832.56;5048638;28;20757;-22
2021/05/03 06:47:20;;;;;;;10.32;2.22;;;;;;;22.01;33.99;99831.97;5048218;28;20436;-21
2021/05/03 06:49:46;;;;;;;10.57;2.22;;;;;;;22.14;33.38;99823.03;5048043;28;20103;-22
2021/05/03 06:52:11;;;;;;;10.50;2.28;;;;;;;22.13;34.24;99804.31;5048432;28;20060;-21
2021/05/03 06:54:37;;;;;;;13.68;2.25;;;;;;;22.42;33.46;99806.75;5048107;28;20764;-21
2021/05/03 06:57:02;;;;;;;9.18;1.88;;;;;;;22.40;33.34;99826.06;5048166;28;20040;-21
2021/05/03 06:59:28;;;;;;;7.22;2.20;;;;;;;22.04;32.71;99829.44;5048215;28;20837;-21
2021/05/03 07:01:54;;;;;;;9.20;1.75;;;;;;;21.86;32.61;99822.19;5047831;28;20033;-22
2021/05/03 07:04:19;;;;;;;18.50;2.50;;;;;;;21.98;32.86;99813.56;5047839;28;20047;-21
2021/05/03 07:06:45;;;;;;;17.85;2.58;;;;;;;22.01;33.18;99823.84;5047629;28;20111;-21
2021/05/03 07:09:10;;;;;;;5.22;1.30;;;;;;;22.03;33.25;99832.50;5048041;28;20448;-22
2021/05/03 07:11:36;;;;;;;13.73;2.22;;;;;;;21.95;33.26;99814.97;5047959;28;20060;-21
2021/05/03 07:14:02;;;;;;;8.50;1.65;;;;;;;22.05;33.22;99824.84;5047814;28;20033;-22
2021/05/03 07:16:28;;;;;;;10.75;2.40;;;;;;;22.05;33.65;99813.97;5047459;28;20032;-22
2021/05/03 07:18:54;;;;;;;10.88;2.30;;;;;;;22.49;32.78;99838.94;5047592;28;20029;-21
2021/05/03 07:21:19;;;;;;;8.45;1.88;;;;;;;22.63;32.32;99823.41;5047821;28;20037;-21
2021/05/03 07:23:48;;;;;;;9.40;2.30;;;;;;;22.72;33.38;99835.19;5047688;28;20107;-21
2021/05/03 07:26:14;;;;;;;10.13;2.00;;;;;;;22.77;33.13;99840.50;5046208;28;20029;-21
2021/05/03 07:28:39;;;;;;;9.32;2.22;;;;;;;22.79;32.74;99842.91;5047570;28;20033;-21
2021/05/03 07:31:07;;;;;;;10.02;2.15;;;;;;;22.94;33.26;99834.41;5046140;28;20094;-21
2021/05/03 07:33:32;;;;;;;12.52;3.17;;;;;;;23.47;34.13;99841.06;5047512;28;20067;-21
2021/05/03 07:35:57;;;;;;;7.07;2.17;;;;;;;23.50;33.00;99817.84;5047585;28;20037;-20
2021/05/03 07:38:23;;;;;;;11.52;2.80;;;;;;;23.96;33.93;99842.00;5047563;28;20429;-21
2021/05/03 07:40:48;;;;;;;7.88;2.38;;;;;;;23.63;32.04;99823.22;5046160;28;20036;-21
2021/05/03 07:43:14;;;;;;;14.05;3.42;;;;;;;23.48;31.93;99826.34;5047608;28;20036;-21
2021/05/03 07:45:40;;;;;;;12.55;2.95;;;;;;;23.79;32.34;99828.31;5046623;28;20032;-22
2021/05/03 07:48:05;;;;;;;6.88;2.30;;;;;;;23.71;33.95;99832.56;5045665;28;20480;-22
2021/05/03 07:50:31;;;;;;;7.00;2.20;;;;;;;23.74;32.58;99839.28;5046972;28;20060;-22
2021/05/03 07:52:57;;;;;;;9.38;2.30;;;;;;;23.91;33.42;99833.19;5047260;28;20493;-21
2021/05/03 07:55:23;;;;;;;29.25;2.88;;;;;;;23.86;31.55;99836.81;5047312;28;20044;-21
2021/05/03 07:57:48;;;;;;;13.05;2.50;;;;;;;23.94;32.36;99838.78;5047358;28;20029;-22
2021/05/03 08:00:14;;;;;;;8.60;2.30;;;;;;;24.18;30.86;99862.91;5046882;28;20067;-22
2021/05/03 08:02:40;;;;;;;9.80;2.45;;;;;;;24.06;30.99;99847.16;5046764;28;20025;-21
2021/05/03 08:05:06;;;;;;;6.05;1.95;;;;;;;24.26;30.23;99842.28;5047171;28;20029;-23
2021/05/03 08:07:31;;;;;;;10.07;2.00;;;;;;;24.22;31.16;99854.94;5046877;28;20078;-22
2021/05/03 08:09:57;;;;;;;8.18;2.72;;;;;;;24.37;30.54;99851.75;5046958;28;20032;-22
2021/05/03 08:12:22;;;;;;;8.23;1.60;;;;;;;24.02;29.86;99840.72;5047227;28;20032;-21
2021/05/03 08:14:49;;;;;;;10.75;3.25;;;;;;;24.39;31.17;99835.88;5046948;28;20425;-21
2021/05/03 08:17:16;;;;;;;11.48;2.20;;;;;;;24.17;31.30;99809.56;5047171;28;20471;-20
2021/05/03 08:19:41;;;;;;;6.40;1.95;;;;;;;24.41;30.60;99836.38;5046975;28;20389;-21
2021/05/03 08:22:07;;;;;;;8.77;2.40;;;;;;;24.29;30.97;99838.91;5047149;28;20574;-21
2021/05/03 08:24:33;;;;;;;7.25;2.20;;;;;;;24.00;30.71;99842.16;5047057;28;20037;-20
2021/05/03 08:26:59;;;;;;;10.55;2.70;;;;;;;23.96;31.02;99831.09;5047188;28;20103;-21
2021/05/03 08:29:24;;;;;;;6.85;2.03;;;;;;;23.99;31.03;99846.81;5046785;28;20032;-21
2021/05/03 08:31:50;;;;;;;10.18;2.40;;;;;;;24.34;30.74;99830.59;5046855;28;20029;-21
2021/05/03 08:34:15;;;;;;;13.32;2.47;;;;;;;24.50;30.52;99816.53;5046921;28;20048;-22
2021/05/03 08:36:41;;;;;;;8.77;2.60;;;;;;;24.73;32.30;99830.88;5046856;28;20032;-21
2021/05/03 08:39:06;;;;;;;10.82;2.80;;;;;;;24.67;31.78;99854.75;5045463;28;20037;-21
2021/05/03 08:41:33;;;;;;;10.23;2.65;;;;;;;25.04;30.40;99847.88;5046704;28;20040;-21
2021/05/03 08:43:59;;;;;;;9.40;3.10;;;;;;;24.83;30.99;99855.09;5046632;28;20028;-22
2021/05/03 08:46:28;;;;;;;6.20;2.00;;;;;;;24.78;31.83;99856.03;5046402;28;20040;-21
2021/05/03 08:54:46;;;;;;;;;;;;;;;25.67;31.07;99863.88;5047226;28;20032;-22
2021/05/03 08:56:53;;;;;;;10.65;2.63;;;;;;;25.34;31.45;99871.81;5048858;28;19966;-21
2021/05/03 08:59:18;;;;;;;8.45;1.90;;;;;;;25.40;31.64;99865.06;5050381;28;20029;-21
2021/05/03 09:01:47;;;;;;;10.63;3.30;;;;;;;25.66;32.32;99860.38;5050226;28;20029;-21
2021/05/03 09:04:16;;;;;;;9.77;2.65;;;;;;;25.93;32.33;99838.44;5050292;28;20073;-21
2021/05/03 09:07:12;;;;;;;8.32;2.80;;;;;;;26.33;31.24;99841.63;5050352;28;20033;-21
2021/05/03 09:09:46;;;;;;;7.30;2.50;;;;;;;26.77;29.59;99850.41;5050177;28;20025;-22
2021/05/03 09:12:17;;;;;;;11.70;2.38;;;;;;;26.37;30.92;99842.56;5050069;28;20031;-20
2021/05/03 09:14:59;;;;;;;9.98;2.78;;;;;;;26.36;31.95;99821.84;5050345;28;20032;-21
2021/05/03 09:17:31;;;;;;;7.57;2.80;;;;;;;26.68;32.10;99833.25;5050135;28;20028;-21
2021/05/03 09:19:59;;;;;;;10.75;3.13;;;;;;;26.85;30.24;99840.53;5050098;28;20056;-23
2021/05/03 09:22:25;;;;;;;7.10;2.45;;;;;;;26.03;32.10;99849.00;5049894;28;20103;-24
2021/05/03 09:24:51;;;;;;;11.13;2.90;;;;;;;26.32;30.99;99842.78;5050325;28;20554;-23
2021/05/03 09:27:19;;;;;;;8.98;2.30;;;;;;;27.01;29.53;99837.97;5048193;28;20041;-21
2021/05/03 09:29:45;;;;;;;9.60;2.60;;;;;;;27.35;30.42;99838.84;5048437;28;20025;-21
2021/05/03 09:32:12;;;;;;;8.45;2.90;;;;;;;27.35;29.76;99804.03;5049535;28;20040;-20
2021/05/03 09:34:38;;;;;;;9.65;2.63;;;;;;;27.27;28.98;99806.88;5049912;28;20024;-21
2021/05/03 09:37:28;;;;;;;11.60;2.67;;;;;;;26.89;31.41;99822.31;5049842;28;20037;-20
2021/05/03 09:40:10;;;;;;;8.77;2.17;;;;;;;27.15;30.03;99815.81;5049773;28;20183;-21
2021/05/03 09:42:46;;;;;;;13.13;2.30;;;;;;;26.75;29.53;99825.31;5049416;28;20397;-26
2021/05/03 09:45:13;;;;;;;8.60;2.05;;;;;;;27.17;27.92;99822.53;5049468;28;20029;-22
2021/05/03 09:47:39;;;;;;;;;;;;;;;27.56;28.22;99831.34;5049974;28;20112;-21
2021/05/03 09:50:08;;;;;;;6.25;1.90;;;;;;;27.82;29.00;99830.28;5049175;28;19935;-21
2021/05/03 09:52:33;;;;;;;6.43;1.85;;;;;;;27.57;30.69;99827.50;5049175;28;20028;-21
2021/05/03 09:54:59;;;;;;;19.08;2.67;;;;;;;27.39;29.28;99826.88;5049315;28;20504;-21
2021/05/03 09:57:24;;;;;;;10.18;2.25;;;;;;;27.18;28.90;99835.09;5049954;28;20040;-21
2021/05/03 09:59:52;;;;;;;6.93;1.85;;;;;;;27.54;29.50;99832.84;5050291;28;20028;-21
2021/05/03 10:02:26;;;;;;;9.15;1.88;;;;;;;27.51;28.95;99823.38;5049076;28;20501;-21
2021/05/03 10:05:03;;;;;;;11.60;2.08;;;;;;;27.69;28.93;99842.38;5049146;28;20139;-21
2021/05/03 10:07:29;;;;;;;8.73;2.20;;;;;;;27.66;28.84;99835.59;5047310;28;20783;-21
2021/05/03 10:10:02;;;;;;;5.88;1.92;;;;;;;27.59;29.07;99819.72;5049364;28;20048;-21
2021/05/03 10:12:28;;;;;;;9.23;1.75;;;;;;;27.59;28.00;99836.16;5048838;28;20039;-21
2021/05/03 10:14:53;;;;;;;7.50;1.90;;;;;;;27.64;29.26;99846.91;5048982;28;20024;-21
2021/05/03 10:17:19;;;;;;;8.15;1.77;;;;;;;27.70;30.35;99838.47;5047890;28;20053;-20
2021/05/03 10:19:45;;;;;;;7.15;1.60;;;;;;;27.58;30.12;99829.09;5031353;28;20032;-20
2021/05/03 10:22:16;;;;;;;8.15;1.83;;;;;;;27.50;28.91;99832.72;5031072;28;20769;-21
2021/05/03 10:24:42;;;;;;;9.02;2.20;;;;;;;27.93;30.74;99814.19;5049033;28;20068;-21
2021/05/03 10:27:07;;;;;;;7.40;1.85;;;;;;;28.40;27.72;99831.00;5047466;28;20567;-21
2021/05/03 10:29:42;;;;;;;8.43;1.88;;;;;;;27.65;29.96;99843.03;5047550;28;20028;-20
2021/05/03 10:32:10;;;;;;;8.20;1.80;;;;;;;28.29;28.73;99829.84;5048663;28;20450;-21
2021/05/03 10:34:47;;;;;;;12.63;1.88;;;;;;;28.77;29.19;99830.13;5048505;28;20110;-21
2021/05/03 10:37:31;;;;;;;8.37;2.63;;;;;;;29.30;28.63;99847.38;5044912;28;20143;-21
2021/05/03 10:40:17;;;;;;;6.10;1.70;;;;;;;29.51;28.46;99840.88;5033560;28;20033;-21
2021/05/03 10:43:03;;;;;;;8.43;1.95;;;;;;;30.07;28.34;99837.97;5034496;28;20421;-21
2021/05/03 10:46:09;;;;;;;8.23;2.28;;;;;;;30.46;27.61;99826.34;5036610;28;20120;-22
2021/05/03 10:48:56;;;;;;;4.13;1.45;;;;;;;29.37;26.87;99844.03;5037165;28;20066;-21
2021/05/03 10:51:29;;;;;;;5.68;1.63;;;;;;;28.48;29.17;99825.72;5036234;28;20579;-21
2021/05/03 10:53:56;;;;;;;6.40;1.70;;;;;;;28.11;30.97;99829.28;5035843;28;20106;-22
2021/05/03 10:56:48;;;;;;;7.72;1.52;;;;;;;28.24;30.96;99830.09;5036026;28;20025;-21
2021/05/03 10:59:14;;;;;;;6.97;1.70;;;;;;;28.52;29.14;99826.66;5051728;28;20095;-21
2021/05/03 11:01:55;;;;;;;9.13;2.30;;;;;;;29.34;27.55;99833.72;5035995;28;20022;-21
2021/05/03 11:04:30;;;;;;;12.70;2.30;;;;;;;28.37;28.85;99828.13;5035899;28;20021;-22
2021/05/03 11:06:55;;;;;;;6.75;1.50;;;;;;;28.27;29.16;99826.66;5038934;28;20021;-22
2021/05/03 11:09:39;;;;;;;8.98;1.33;;;;;;;29.33;27.64;99821.16;5047793;28;20713;-22
2021/05/03 11:12:05;;;;;;;6.35;1.40;;;;;;;29.80;29.17;99823.19;5035631;28;20481;-21
2021/05/03 11:14:32;;;;;;;7.20;1.90;;;;;;;30.31;26.52;99805.97;5037449;28;20017;-22
2021/05/03 11:17:11;;;;;;;9.77;2.20;;;;;;;30.37;27.44;99819.06;5036352;28;20503;-22
2021/05/03 11:22:47;;;;;;;6.82;1.42;;;;;;;30.22;23.01;99819.88;5036503;28;20060;-22
2021/05/03 11:25:17;;;;;;;5.40;1.35;;;;;;;29.40;25.27;99815.84;5034513;28;20029;-21
2021/05/03 11:30:30;;;;;;;8.02;1.45;;;;;;;28.32;25.18;99800.94;5036857;28;20068;-22
2021/05/03 11:32:59;;;;;;;8.23;1.42;;;;;;;29.64;24.39;99804.69;5035540;28;20025;-21
2021/05/03 11:38:11;;;;;;;;;;;;;;;30.71;24.44;99815.84;5048116;28;20028;-21
2021/05/03 11:46:31;;;;;;;5.80;1.80;;;;;;;29.85;25.62;99814.66;5047087;28;20033;-21
2021/05/03 11:48:57;;;;;;;5.60;1.17;;;;;;;29.52;24.02;99807.53;5047468;28;20061;-21
2021/05/03 11:51:22;;;;;;;2.80;1.10;;;;;;;29.51;24.01;99800.44;5047589;28;20033;-21
2021/05/03 11:53:48;;;;;;;5.57;1.00;;;;;;;30.17;23.24;99803.66;5047283;28;20032;-22
2021/05/03 11:56:24;;;;;;;11.50;2.03;;;;;;;30.53;23.24;99810.00;5046953;28;20471;-21
2021/05/03 11:58:56;;;;;;;6.05;1.20;;;;;;;30.93;23.21;99803.38;5046048;28;20036;-21
2021/05/03 12:01:24;;;;;;;4.60;1.00;;;;;;;31.69;23.05;99805.56;5047149;28;20090;-21